createdAt,value
2022-08-26T00:00:06.762Z,0.93
2022-08-26T00:02:59.129Z,1.27
2022-08-26T00:05:46.445Z,1.10
2022-08-26T00:08:31.857Z,0.70
2022-08-26T00:11:26.889Z,1.17
2022-08-26T00:14:14.028Z,0.88
2022-08-26T00:16:59.427Z,1.05
2022-08-26T00:19:45.448Z,0.98
2022-08-26T00:22:33.019Z,0.98
2022-08-26T00:25:19.042Z,1.13
2022-08-26T00:28:06.414Z,1.00
2022-08-26T00:30:53.267Z,1.58
2022-08-26T00:33:39.877Z,1.98
2022-08-26T00:36:25.510Z,0.77
2022-08-26T00:39:15.513Z,0.52
2022-08-26T00:42:02.381Z,0.90
2022-08-26T00:44:47.738Z,0.75
2022-08-26T00:47:38.823Z,1.00
2022-08-26T00:50:31.669Z,0.93
2022-08-26T00:53:26.044Z,0.73
2022-08-26T00:56:41.229Z,1.08
2022-08-26T00:59:32.780Z,0.77
2022-08-26T01:02:21.202Z,0.95
2022-08-26T01:05:09.847Z,0.90
2022-08-26T01:07:55.535Z,0.70
2022-08-26T01:10:43.353Z,0.55
2022-08-26T01:13:30.988Z,0.95
2022-08-26T01:16:17.185Z,1.00
2022-08-26T01:19:14.803Z,0.60
2022-08-26T01:22:06.119Z,0.70
2022-08-26T01:24:51.557Z,0.73
2022-08-26T01:27:37.112Z,0.70
2022-08-26T01:30:23.060Z,1.20
2022-08-26T01:33:13.077Z,0.88
2022-08-26T01:36:00.153Z,0.70
2022-08-26T01:38:45.552Z,0.60
2022-08-26T01:41:32.260Z,1.02
2022-08-26T01:44:23.850Z,0.90
2022-08-26T01:47:10.224Z,0.70
2022-08-26T01:50:00.003Z,0.60
2022-08-26T01:52:48.114Z,0.80
2022-08-26T01:55:44.304Z,1.20
2022-08-26T01:58:39.185Z,1.17
2022-08-26T02:01:29.098Z,0.63
2022-08-26T02:04:26.675Z,0.50
2022-08-26T02:07:12.813Z,0.85
2022-08-26T02:09:58.130Z,0.88
2022-08-26T02:12:43.552Z,0.77
2022-08-26T02:15:29.614Z,0.70
2022-08-26T02:18:15.240Z,0.70
2022-08-26T02:21:01.652Z,0.68
2022-08-26T02:23:47.693Z,0.60
2022-08-26T02:26:34.812Z,1.20
2022-08-26T02:29:25.653Z,0.70
2022-08-26T02:32:11.257Z,0.77
2022-08-26T02:34:56.727Z,1.30
2022-08-26T02:37:42.509Z,0.70
2022-08-26T02:40:36.788Z,1.10
2022-08-26T02:43:23.916Z,0.52
2022-08-26T02:46:27.635Z,0.57
2022-08-26T02:49:14.073Z,0.70
2022-08-26T02:52:02.002Z,0.82
2022-08-26T02:54:48.055Z,0.80
2022-08-26T02:57:35.112Z,0.88
2022-08-26T03:00:20.924Z,1.05
2022-08-26T03:03:06.966Z,0.73
2022-08-26T03:05:53.799Z,0.70
2022-08-26T03:08:39.964Z,0.68
2022-08-26T03:11:29.636Z,0.80
2022-08-26T03:14:17.737Z,1.30
2022-08-26T03:17:03.689Z,0.90
2022-08-26T03:19:54.254Z,0.70
2022-08-26T03:22:43.491Z,0.90
2022-08-26T03:25:28.978Z,0.95
2022-08-26T03:28:15.007Z,1.00
2022-08-26T03:31:05.628Z,1.08
2022-08-26T03:33:51.480Z,0.75
2022-08-26T03:36:37.689Z,1.10
2022-08-26T03:39:23.292Z,1.05
2022-08-26T03:42:08.849Z,0.95
2022-08-26T03:44:56.678Z,0.73
2022-08-26T03:47:42.789Z,0.75
2022-08-26T03:50:28.518Z,0.85
2022-08-26T03:53:14.252Z,0.95
2022-08-26T03:55:59.680Z,0.98
2022-08-26T03:58:45.913Z,0.80
2022-08-26T04:01:31.666Z,0.63
2022-08-26T04:04:18.302Z,0.40
2022-08-26T04:07:08.717Z,0.30
2022-08-26T04:09:56.309Z,0.40
2022-08-26T04:12:41.868Z,0.40
2022-08-26T04:15:28.282Z,0.38
2022-08-26T04:18:13.739Z,0.20
2022-08-26T04:20:59.050Z,0.40
2022-08-26T04:23:47.504Z,0.50
2022-08-26T04:26:39.530Z,0.47
2022-08-26T04:29:28.368Z,0.50
2022-08-26T04:32:13.842Z,0.43
2022-08-26T04:34:59.552Z,0.68
2022-08-26T04:37:49.022Z,1.13
2022-08-26T04:40:34.740Z,1.50
2022-08-26T04:43:20.696Z,1.42
2022-08-26T04:46:07.060Z,1.50
2022-08-26T04:48:53.908Z,1.60
2022-08-26T04:51:40.410Z,1.58
2022-08-26T04:54:26.491Z,1.17
2022-08-26T04:57:11.971Z,1.00
2022-08-26T04:59:58.132Z,0.80
2022-08-26T05:02:43.801Z,0.88
2022-08-26T05:05:29.131Z,0.80
2022-08-26T05:08:15.692Z,0.80
2022-08-26T05:11:04.804Z,0.70
2022-08-26T05:13:51.061Z,0.70
2022-08-26T05:16:37.273Z,0.85
2022-08-26T05:19:27.777Z,0.43
2022-08-26T05:22:14.444Z,0.95
2022-08-26T05:25:00.330Z,0.55
2022-08-26T05:27:45.982Z,0.52
2022-08-26T05:30:31.672Z,0.70
2022-08-26T05:33:19.462Z,0.90
2022-08-26T05:36:12.610Z,0.70
2022-08-26T05:38:58.803Z,1.00
2022-08-26T05:41:44.845Z,0.68
2022-08-26T05:44:53.577Z,0.82
2022-08-26T05:47:36.113Z,1.15
2022-08-26T05:50:23.184Z,1.02
2022-08-26T05:53:11.172Z,0.88
2022-08-26T05:55:56.990Z,0.80
2022-08-26T05:58:43.901Z,0.80
2022-08-26T06:01:32.612Z,0.73
2022-08-26T06:04:21.467Z,0.60
2022-08-26T06:07:07.416Z,0.60
2022-08-26T06:10:15.350Z,0.60
2022-08-26T06:13:11.891Z,0.60
2022-08-26T06:15:59.313Z,0.93
2022-08-26T06:18:47.232Z,0.70
2022-08-26T06:21:34.810Z,0.80
2022-08-26T06:24:38.965Z,0.52
2022-08-26T06:27:28.357Z,0.50
2022-08-26T06:30:17.844Z,0.40
2022-08-26T06:33:04.356Z,0.63
2022-08-26T06:35:52.061Z,0.43
2022-08-26T06:38:37.709Z,0.40
2022-08-26T06:41:24.401Z,0.40
2022-08-26T06:44:11.765Z,0.30
2022-08-26T06:46:57.320Z,0.50
2022-08-26T06:49:44.208Z,0.40
2022-08-26T06:52:29.986Z,0.40
2022-08-26T06:55:15.459Z,0.30
2022-08-26T06:58:00.854Z,0.50
2022-08-26T07:00:47.195Z,0.32
2022-08-26T07:03:35.404Z,0.45
2022-08-26T07:06:27.458Z,0.25
2022-08-26T07:09:13.213Z,1.38
2022-08-26T07:11:59.660Z,0.40
2022-08-26T07:14:47.475Z,0.10
2022-08-26T07:17:34.069Z,0.40
2022-08-26T07:20:19.804Z,0.32
2022-08-26T07:23:07.039Z,0.43
2022-08-26T07:25:57.721Z,0.25
2022-08-26T07:28:46.369Z,0.40
2022-08-26T07:31:42.195Z,0.32
2022-08-26T07:34:28.805Z,0.25
2022-08-26T07:37:15.285Z,0.20
2022-08-26T07:40:04.046Z,0.20
2022-08-26T07:42:50.571Z,0.10
2022-08-26T07:45:36.207Z,0.10
2022-08-26T07:48:22.255Z,0.55
2022-08-26T07:51:07.998Z,0.28
2022-08-26T07:53:54.494Z,0.32
2022-08-26T07:56:39.856Z,0.45
2022-08-26T07:59:29.745Z,0.50
2022-08-26T08:02:15.926Z,0.30
2022-08-26T08:05:02.050Z,0.20
2022-08-26T08:07:48.876Z,0.40
2022-08-26T08:10:39.896Z,0.20
2022-08-26T08:13:25.672Z,0.30
2022-08-26T08:16:12.532Z,0.35
2022-08-26T08:18:58.608Z,0.40
2022-08-26T08:21:44.937Z,0.30
2022-08-26T08:24:30.737Z,0.73
2022-08-26T08:27:17.213Z,0.63
2022-08-26T08:30:07.570Z,0.40
2022-08-26T08:32:53.873Z,0.43
2022-08-26T08:35:42.421Z,0.40
2022-08-26T08:38:29.436Z,0.30
2022-08-26T08:41:45.158Z,0.38
2022-08-26T08:44:31.338Z,0.32
2022-08-26T08:47:55.419Z,0.40
2022-08-26T08:50:48.975Z,0.30
2022-08-26T08:53:43.193Z,0.32
2022-08-26T08:56:53.168Z,0.65
2022-08-26T08:59:53.365Z,0.70
2022-08-26T09:02:42.651Z,0.47
2022-08-26T09:05:40.267Z,0.52
2022-08-26T09:08:30.373Z,0.63
2022-08-26T09:11:17.685Z,0.40
2022-08-26T09:14:03.350Z,0.30
2022-08-26T09:16:59.503Z,0.50
2022-08-26T09:19:52.931Z,0.32
2022-08-26T09:22:39.761Z,0.30
2022-08-26T09:25:29.824Z,0.30
2022-08-26T09:28:20.537Z,0.35
2022-08-26T09:31:22.129Z,0.40
2022-08-26T09:34:17.345Z,0.40
2022-08-26T09:37:04.665Z,0.30
2022-08-26T09:39:50.512Z,0.20
2022-08-26T09:42:36.859Z,0.32
2022-08-26T09:45:28.832Z,0.28
2022-08-26T09:48:45.484Z,0.32
2022-08-26T09:51:32.390Z,0.20
2022-08-26T09:54:30.186Z,0.30
2022-08-26T09:57:34.617Z,0.20
2022-08-26T10:00:40.247Z,0.20
2022-08-26T10:03:31.648Z,0.30
2022-08-26T10:06:17.658Z,0.35
2022-08-26T10:09:10.926Z,0.20
2022-08-26T10:12:00.798Z,0.30
2022-08-26T10:14:52.200Z,0.25
2022-08-26T10:17:46.618Z,0.17
2022-08-26T10:20:38.326Z,0.22
2022-08-26T10:23:29.575Z,0.40
2022-08-26T10:26:39.012Z,0.30
2022-08-26T10:29:34.500Z,0.30
2022-08-26T10:32:19.746Z,0.32
2022-08-26T10:35:09.854Z,0.40
2022-08-26T10:38:01.185Z,0.13
2022-08-26T10:41:16.822Z,0.20
2022-08-26T10:44:09.916Z,0.22
2022-08-26T10:47:03.565Z,0.30
2022-08-26T10:49:57.545Z,0.30
2022-08-26T10:53:02.923Z,0.40
2022-08-26T10:55:57.109Z,0.50
2022-08-26T10:59:12.682Z,0.38
2022-08-26T11:02:08.825Z,0.40
2022-08-26T11:05:04.478Z,0.45
2022-08-26T11:08:13.677Z,0.52
2022-08-26T11:11:00.351Z,0.50
2022-08-26T11:14:01.170Z,0.47
2022-08-26T11:16:52.343Z,0.68
2022-08-26T11:20:01.630Z,0.43
2022-08-26T11:22:48.293Z,0.30
2022-08-26T11:25:34.138Z,0.30
2022-08-26T11:28:40.092Z,0.35
2022-08-26T11:31:30.657Z,0.25
2022-08-26T11:34:17.454Z,0.30
2022-08-26T11:37:12.652Z,0.32
2022-08-26T11:39:58.200Z,0.40
2022-08-26T11:42:51.740Z,0.40
2022-08-26T11:45:41.742Z,0.52
2022-08-26T11:48:31.068Z,0.50
2022-08-26T11:51:16.573Z,0.40
2022-08-26T11:54:30.483Z,0.85
2022-08-26T11:57:20.651Z,0.45
2022-08-26T12:00:14.234Z,0.30
2022-08-26T12:03:07.570Z,0.60
2022-08-26T12:05:54.447Z,0.63
2022-08-26T12:08:43.910Z,0.50
2022-08-26T12:11:33.671Z,0.40
2022-08-26T12:14:24.395Z,0.45
2022-08-26T12:17:16.513Z,0.50
2022-08-26T12:20:02.874Z,0.30
2022-08-26T12:22:48.636Z,0.45
2022-08-26T12:25:36.161Z,0.40
2022-08-26T12:28:23.105Z,0.80
2022-08-26T12:31:08.793Z,0.60
2022-08-26T12:33:56.045Z,0.60
2022-08-26T12:36:55.778Z,0.40
2022-08-26T12:39:45.054Z,0.60
2022-08-26T12:42:42.152Z,0.50
2022-08-26T12:45:34.912Z,0.60
2022-08-26T12:48:32.897Z,0.60
2022-08-26T12:51:30.450Z,0.52
2022-08-26T12:54:17.831Z,0.60
2022-08-26T12:57:13.346Z,0.63
2022-08-26T13:00:35.201Z,0.50
2022-08-26T13:03:40.447Z,0.60
2022-08-26T13:06:30.111Z,0.30
2022-08-26T13:09:18.438Z,0.60
2022-08-26T13:12:04.395Z,0.50
2022-08-26T13:14:50.916Z,0.60
2022-08-26T13:17:37.866Z,0.52
2022-08-26T13:20:23.769Z,0.55
2022-08-26T13:23:09.219Z,0.60
2022-08-26T13:25:54.616Z,0.50
2022-08-26T13:28:40.791Z,0.52
2022-08-26T13:31:29.504Z,0.30
2022-08-26T13:34:21.581Z,0.30
2022-08-26T13:37:07.269Z,0.47
2022-08-26T13:39:54.172Z,0.40
2022-08-26T13:42:49.573Z,0.20
2022-08-26T13:45:36.843Z,0.20
2022-08-26T13:48:23.681Z,0.30
2022-08-26T13:51:09.358Z,0.30
2022-08-26T13:53:55.154Z,0.25
2022-08-26T13:56:41.003Z,0.25
2022-08-26T13:59:26.648Z,0.52
2022-08-26T14:02:12.155Z,0.20
2022-08-26T14:04:57.569Z,0.30
2022-08-26T14:07:42.967Z,0.20
2022-08-26T14:10:28.411Z,0.38
2022-08-26T14:13:14.510Z,0.25
2022-08-26T14:16:01.690Z,0.47
2022-08-26T14:18:50.749Z,0.40
2022-08-26T14:21:38.869Z,0.50
2022-08-26T14:24:24.621Z,0.13
2022-08-26T14:27:10.379Z,0.45
2022-08-26T14:29:55.747Z,0.50
2022-08-26T14:32:45.695Z,0.60
2022-08-26T14:35:31.322Z,0.50
2022-08-26T14:38:17.347Z,0.30
2022-08-26T14:41:03.353Z,0.13
2022-08-26T14:44:00.247Z,0.40
2022-08-26T14:46:48.730Z,0.43
2022-08-26T14:49:34.627Z,0.32
2022-08-26T14:52:19.993Z,0.30
2022-08-26T14:55:05.805Z,0.30
2022-08-26T14:57:51.077Z,0.30
2022-08-26T15:00:37.534Z,0.70
2022-08-26T15:03:22.966Z,1.02
2022-08-26T15:06:09.641Z,0.30
2022-08-26T15:08:55.558Z,0.40
2022-08-26T15:11:41.477Z,0.30
2022-08-26T15:14:30.913Z,0.30
2022-08-26T15:17:18.465Z,0.43
2022-08-26T15:20:06.324Z,0.57
2022-08-26T15:22:52.039Z,0.50
2022-08-26T15:25:38.602Z,1.05
2022-08-26T15:28:23.888Z,0.32
2022-08-26T15:31:09.801Z,0.40
2022-08-26T15:33:59.467Z,0.30
2022-08-26T15:36:47.075Z,0.40
2022-08-26T15:39:32.845Z,0.28
2022-08-26T15:42:18.829Z,0.45
2022-08-26T15:45:05.361Z,0.40
2022-08-26T15:48:11.110Z,0.10
2022-08-26T15:51:02.672Z,0.57
2022-08-26T15:53:48.696Z,0.70
2022-08-26T15:56:36.255Z,0.28
2022-08-26T15:59:22.697Z,0.50
2022-08-26T16:02:09.172Z,0.38
2022-08-26T16:04:55.002Z,0.28
2022-08-26T16:07:40.570Z,0.40
2022-08-26T16:10:26.190Z,0.63
2022-08-26T16:13:14.737Z,0.40
2022-08-26T16:16:01.557Z,0.52
2022-08-26T16:18:49.698Z,0.38
2022-08-26T16:21:36.129Z,0.30
2022-08-26T16:24:24.786Z,0.30
2022-08-26T16:27:13.151Z,0.52
2022-08-26T16:29:58.505Z,0.40
2022-08-26T16:32:43.897Z,0.50
2022-08-26T16:35:29.728Z,0.30
2022-08-26T16:38:15.720Z,0.50
2022-08-26T16:41:01.812Z,0.30
2022-08-26T16:43:47.381Z,0.52
2022-08-26T16:46:33.971Z,0.40
2022-08-26T16:49:20.300Z,0.45
2022-08-26T16:52:06.890Z,0.35
2022-08-26T16:54:53.212Z,0.28
2022-08-26T16:57:44.130Z,0.40
2022-08-26T17:00:33.113Z,0.82
2022-08-26T17:03:18.453Z,0.70
2022-08-26T17:06:03.869Z,0.60
2022-08-26T17:08:49.320Z,0.50
2022-08-26T17:11:35.582Z,0.70
2022-08-26T17:14:21.760Z,0.80
2022-08-26T17:17:07.017Z,0.50
2022-08-26T17:19:52.491Z,0.30
2022-08-26T17:22:44.861Z,0.45
2022-08-26T17:25:32.161Z,0.50
2022-08-26T17:28:17.861Z,0.50
2022-08-26T17:31:04.360Z,0.40
2022-08-26T17:33:53.849Z,0.30
2022-08-26T17:36:39.877Z,0.60
2022-08-26T17:39:25.253Z,0.57
2022-08-26T17:42:12.019Z,0.57
2022-08-26T17:44:57.626Z,0.50
2022-08-26T17:47:43.634Z,0.47
2022-08-26T17:50:29.223Z,0.32
2022-08-26T17:53:18.956Z,0.45
2022-08-26T17:56:07.322Z,0.45
2022-08-26T17:58:56.876Z,0.30
2022-08-26T18:01:42.637Z,0.55
2022-08-26T18:04:28.155Z,0.45
2022-08-26T18:07:13.670Z,0.55
2022-08-26T18:10:01.615Z,0.32
2022-08-26T18:12:48.226Z,0.45
2022-08-26T18:15:34.141Z,0.43
2022-08-26T18:18:19.595Z,0.50
2022-08-26T18:21:22.094Z,0.47
2022-08-26T18:24:12.119Z,0.60
2022-08-26T18:29:48.534Z,0.32
2022-08-26T18:32:34.282Z,0.60
2022-08-26T18:35:21.537Z,0.50
2022-08-26T18:38:11.430Z,0.40
2022-08-26T18:40:57.236Z,0.30
2022-08-26T18:43:43.290Z,0.30
2022-08-26T18:46:29.156Z,0.40
2022-08-26T18:49:16.585Z,0.20
2022-08-26T18:52:02.338Z,0.50
2022-08-26T18:54:48.216Z,0.60
2022-08-26T18:57:33.858Z,0.43
2022-08-26T19:00:19.194Z,0.60
2022-08-26T19:03:05.171Z,0.50
2022-08-26T19:06:01.741Z,0.55
2022-08-26T19:08:49.980Z,0.30
2022-08-26T19:11:37.268Z,0.85
2022-08-26T19:14:24.195Z,0.60
2022-08-26T19:17:10.372Z,0.95
2022-08-26T19:19:56.356Z,0.50
2022-08-26T19:22:41.819Z,0.75
2022-08-26T19:25:27.378Z,0.43
2022-08-26T19:28:13.214Z,0.70
2022-08-26T19:31:00.018Z,0.63
2022-08-26T19:33:45.644Z,0.95
2022-08-26T19:36:31.964Z,0.60
2022-08-26T19:39:17.713Z,0.88
2022-08-26T19:42:03.465Z,0.95
2022-08-26T19:45:07.481Z,0.70
2022-08-26T19:48:11.229Z,0.70
2022-08-26T19:50:57.021Z,0.90
2022-08-26T19:53:44.163Z,0.70
2022-08-26T19:56:29.764Z,0.40
2022-08-26T19:59:15.529Z,0.70
2022-08-26T20:02:02.188Z,0.50
2022-08-26T20:04:48.242Z,0.73
2022-08-26T20:07:33.806Z,0.50
2022-08-26T20:10:22.934Z,0.73
2022-08-26T20:13:08.774Z,0.65
2022-08-26T20:15:54.733Z,0.57
2022-08-26T20:19:00.501Z,0.60
2022-08-26T20:21:46.699Z,0.68
2022-08-26T20:24:33.310Z,0.40
2022-08-26T20:27:18.651Z,0.60
2022-08-26T20:30:05.775Z,0.80
2022-08-26T20:32:51.426Z,0.57
2022-08-26T20:35:36.655Z,1.02
2022-08-26T20:38:22.363Z,0.70
2022-08-26T20:41:07.550Z,1.10
2022-08-26T20:43:53.963Z,1.00
2022-08-26T20:46:40.677Z,1.25
2022-08-26T20:49:27.543Z,1.00
2022-08-26T20:52:13.986Z,1.35
2022-08-26T20:54:59.409Z,1.30
2022-08-26T20:57:44.689Z,2.50
2022-08-26T21:00:30.139Z,1.60
2022-08-26T21:03:15.507Z,1.85
2022-08-26T21:06:01.093Z,1.80
2022-08-26T21:08:47.460Z,1.90
2022-08-26T21:11:34.017Z,1.80
2022-08-26T21:14:20.717Z,2.33
2022-08-26T21:17:06.126Z,1.90
2022-08-26T21:19:52.173Z,1.63
2022-08-26T21:22:37.676Z,1.95
2022-08-26T21:25:23.554Z,2.10
2022-08-26T21:28:08.994Z,1.48
2022-08-26T21:30:54.806Z,1.73
2022-08-26T21:33:41.008Z,2.10
2022-08-26T21:36:26.920Z,1.98
2022-08-26T21:39:12.679Z,2.08
2022-08-26T21:41:58.943Z,2.10
2022-08-26T21:44:45.153Z,1.65
2022-08-26T21:47:38.692Z,1.80
2022-08-26T21:50:24.322Z,1.90
2022-08-26T21:53:10.453Z,1.65
2022-08-26T21:55:55.945Z,1.60
2022-08-26T21:58:41.803Z,1.60
2022-08-26T22:01:31.903Z,2.17
2022-08-26T22:04:18.353Z,2.33
2022-08-26T22:07:03.784Z,1.90
2022-08-26T22:09:49.776Z,2.30
2022-08-26T22:12:36.251Z,1.73
2022-08-26T22:15:23.284Z,2.25
2022-08-26T22:18:09.669Z,1.52
2022-08-26T22:20:59.306Z,1.75
2022-08-26T22:23:45.909Z,1.80
2022-08-26T22:26:33.214Z,2.45
2022-08-26T22:29:19.831Z,1.38
2022-08-26T22:32:05.637Z,1.58
2022-08-26T22:34:51.121Z,4.13
2022-08-26T22:37:36.596Z,3.55
2022-08-26T22:40:22.214Z,3.42
2022-08-26T22:43:07.809Z,8.55
2022-08-26T22:45:54.528Z,5.70
2022-08-26T22:48:40.144Z,3.55
2022-08-26T22:51:25.553Z,4.20
2022-08-26T22:54:11.538Z,3.80
2022-08-26T22:56:57.335Z,3.65
2022-08-26T22:59:43.282Z,5.05
2022-08-26T23:02:28.769Z,3.80
2022-08-26T23:05:14.117Z,4.10
2022-08-26T23:07:59.687Z,3.35
2022-08-26T23:10:47.049Z,3.22
2022-08-26T23:13:32.438Z,3.53
2022-08-26T23:16:17.802Z,2.60
2022-08-26T23:19:04.590Z,2.58
2022-08-26T23:21:50.597Z,2.80
2022-08-26T23:24:35.863Z,2.60
2022-08-26T23:27:21.342Z,2.90
2022-08-26T23:30:09.404Z,2.78
2022-08-26T23:32:55.145Z,2.80
2022-08-26T23:35:41.011Z,2.55
2022-08-26T23:38:26.459Z,3.35
2022-08-26T23:41:11.913Z,3.22
2022-08-26T23:44:02.863Z,3.53
2022-08-26T23:46:49.367Z,3.45
2022-08-26T23:49:34.897Z,3.60
2022-08-26T23:52:38.542Z,3.80
2022-08-26T23:55:24.441Z,3.30
2022-08-26T23:58:09.954Z,3.22
